Time;durP1;ratioP1;P1;durP2;ratioP2;P2;SDS_P1;SDS_P2;PMS_P1;PMS_P2;Temp;Humidity;BMP_temperature;BMP_pressure;BME280_temperature;BME280_humidity;BME280_pressure;Samples;Min_cycle;Max_cycle;Signal;HPM_P1;HPM_P2
2021/08/22 00:01:18;;;;;;;5.05;3.72;;;22.70;92.00;;;;;;4256387;27;20239;-65
2021/08/22 00:03:21;;;;;;;4.50;3.75;;;22.70;91.40;;;;;;4255064;27;20104;-64
2021/08/22 00:05:25;;;;;;;4.35;3.65;;;22.80;91.50;;;;;;4256552;27;20181;-64
2021/08/22 00:07:28;;;;;;;4.45;3.80;;;22.80;91.90;;;;;;4256373;27;20074;-68
2021/08/22 00:09:31;;;;;;;4.75;3.42;;;22.80;91.70;;;;;;4256193;27;20055;-65
2021/08/22 00:11:34;;;;;;;5.60;4.13;;;22.80;91.60;;;;;;4257488;27;20051;-65
2021/08/22 00:13:37;;;;;;;5.13;3.60;;;22.80;91.90;;;;;;4256883;27;20051;-67
2021/08/22 00:15:40;;;;;;;4.38;3.20;;;22.80;91.80;;;;;;4256072;27;20076;-67
2021/08/22 00:17:45;;;;;;;6.53;3.97;;;22.90;91.40;;;;;;4256232;27;20047;-64
2021/08/22 00:19:48;;;;;;;6.25;4.07;;;22.90;91.60;;;;;;4255982;27;20297;-67
2021/08/22 00:21:51;;;;;;;5.90;3.92;;;22.90;92.40;;;;;;4255623;27;20375;-65
2021/08/22 00:23:54;;;;;;;5.53;4.00;;;22.90;92.00;;;;;;4255764;27;20238;-65
2021/08/22 00:25:57;;;;;;;7.35;4.05;;;22.70;92.70;;;;;;4256015;27;20043;-66
2021/08/22 00:28:00;;;;;;;4.25;3.50;;;22.70;93.00;;;;;;4255728;27;20099;-66
2021/08/22 00:30:04;;;;;;;5.88;3.60;;;22.70;92.50;;;;;;4255905;27;20282;-65
2021/08/22 00:32:08;;;;;;;5.57;4.00;;;22.80;92.30;;;;;;4255839;27;20099;-65
2021/08/22 00:34:12;;;;;;;5.03;3.90;;;22.80;92.70;;;;;;4255962;27;20054;-68
2021/08/22 00:36:15;;;;;;;6.05;4.03;;;22.80;92.80;;;;;;4256152;27;20104;-65
2021/08/22 00:38:18;;;;;;;5.97;4.28;;;22.70;92.90;;;;;;4255849;27;20100;-65
2021/08/22 00:40:21;;;;;;;7.32;4.07;;;22.80;92.60;;;;;;4255580;27;20415;-65
2021/08/22 00:42:24;;;;;;;4.93;3.88;;;22.80;92.70;;;;;;4255594;27;20046;-65
2021/08/22 00:44:27;;;;;;;5.50;3.83;;;22.80;92.40;;;;;;4255877;27;20092;-65
2021/08/22 00:46:31;;;;;;;4.97;3.63;;;22.90;92.40;;;;;;4255678;27;20108;-65
2021/08/22 00:48:34;;;;;;;5.80;3.95;;;22.80;93.10;;;;;;4255551;27;20088;-65
2021/08/22 00:50:39;;;;;;;5.35;4.05;;;22.80;92.80;;;;;;4257014;27;20055;-66
2021/08/22 00:52:42;;;;;;;5.20;3.95;;;22.80;92.80;;;;;;4256991;27;20051;-65
2021/08/22 00:54:45;;;;;;;5.38;4.00;;;22.80;93.20;;;;;;4255702;27;20400;-65
2021/08/22 00:56:49;;;;;;;5.32;4.00;;;22.80;92.80;;;;;;4255986;27;20055;-66
2021/08/22 00:58:52;;;;;;;7.80;4.03;;;22.80;93.10;;;;;;4255480;27;20062;-65
2021/08/22 01:00:55;;;;;;;6.57;4.45;;;22.70;93.50;;;;;;4255361;27;20420;-65
2021/08/22 01:03:08;;;;;;;4.47;3.55;;;22.70;93.20;;;;;;4255247;27;20051;-65
2021/08/22 01:05:18;;;;;;;6.20;3.88;;;22.70;93.20;;;;;;4254948;27;20371;-65
2021/08/22 01:07:29;;;;;;;13.10;4.63;;;22.60;93.30;;;;;;4255314;27;20357;-66
2021/08/22 01:09:36;;;;;;;7.20;4.32;;;22.70;93.10;;;;;;4255794;27;20221;-66
2021/08/22 01:11:40;;;;;;;5.88;4.10;;;22.50;93.90;;;;;;4255263;28;20096;-65
2021/08/22 01:13:46;;;;;;;7.60;4.43;;;22.50;94.00;;;;;;4255203;28;20059;-65
2021/08/22 01:15:54;;;;;;;6.53;4.82;;;22.60;93.50;;;;;;4254730;27;20115;-66
2021/08/22 01:17:59;;;;;;;6.97;4.15;;;22.60;93.30;;;;;;4255365;28;20328;-65
2021/08/22 01:20:04;;;;;;;;;;;22.50;93.60;;;;;;4256072;28;20062;-66
2021/08/22 01:22:09;;;;;;;8.07;4.03;;;22.60;93.20;;;;;;4255488;28;19937;-65
2021/08/22 01:24:19;;;;;;;7.85;4.28;;;22.60;93.40;;;;;;4255248;28;20063;-65
2021/08/22 01:26:26;;;;;;;5.45;3.75;;;22.60;93.00;;;;;;4254921;28;20051;-65
2021/08/22 01:28:29;;;;;;;5.38;3.80;;;22.50;92.90;;;;;;4254943;28;20344;-66
2021/08/22 01:30:40;;;;;;;5.57;3.90;;;22.50;93.00;;;;;;4238346;28;20059;-65
2021/08/22 01:32:45;;;;;;;4.93;3.83;;;22.50;92.70;;;;;;4255839;28;20159;-66
2021/08/22 01:34:48;;;;;;;5.28;3.70;;;22.60;92.70;;;;;;4255117;28;20064;-67
2021/08/22 01:36:51;;;;;;;6.28;3.78;;;22.50;92.70;;;;;;4255456;28;20055;-67
2021/08/22 01:38:55;;;;;;;5.68;3.70;;;22.60;92.40;;;;;;4255377;28;20104;-65
2021/08/22 01:40:58;;;;;;;7.70;4.30;;;22.60;92.30;;;;;;4257261;28;20063;-65
2021/08/22 01:43:03;;;;;;;5.57;3.65;;;22.50;92.60;;;;;;4263732;28;20039;-66
2021/08/22 01:45:09;;;;;;;6.40;3.58;;;22.50;92.40;;;;;;4256800;28;20068;-65
2021/08/22 01:47:12;;;;;;;5.75;4.05;;;22.50;92.50;;;;;;4257036;28;20043;-65
2021/08/22 01:49:18;;;;;;;7.07;4.05;;;22.40;92.80;;;;;;4257285;28;20047;-67
2021/08/22 01:51:23;;;;;;;6.05;3.60;;;22.40;92.70;;;;;;4255996;28;20055;-67
2021/08/22 01:53:28;;;;;;;6.93;4.20;;;22.30;93.10;;;;;;4258439;28;20051;-67
2021/08/22 01:55:31;;;;;;;5.68;3.97;;;22.30;92.90;;;;;;4258548;28;20047;-67
2021/08/22 01:57:37;;;;;;;6.72;3.47;;;22.40;92.60;;;;;;4257028;28;20051;-67
2021/08/22 01:59:40;;;;;;;7.20;3.60;;;22.30;92.90;;;;;;4256221;28;20100;-67
2021/08/22 02:01:43;;;;;;;7.75;3.80;;;22.30;93.00;;;;;;4256337;28;20393;-68
2021/08/22 02:03:50;;;;;;;6.43;4.18;;;22.20;93.10;;;;;;4256460;28;20084;-67
2021/08/22 02:05:59;;;;;;;7.18;3.95;;;22.30;93.10;;;;;;4255871;28;20077;-68
2021/08/22 02:08:07;;;;;;;5.18;3.60;;;22.10;93.70;;;;;;4255159;28;20047;-66
2021/08/22 02:10:16;;;;;;;6.43;3.88;;;22.10;93.60;;;;;;4255668;28;20054;-66
2021/08/22 02:12:21;;;;;;;6.60;3.75;;;22.00;93.70;;;;;;4255694;28;20088;-68
2021/08/22 02:14:25;;;;;;;7.28;3.97;;;22.00;93.90;;;;;;4254742;28;20092;-67
2021/08/22 02:16:30;;;;;;;7.90;3.58;;;22.10;93.30;;;;;;4254977;28;20265;-67
2021/08/22 02:18:35;;;;;;;4.85;3.55;;;22.10;93.00;;;;;;4254814;28;20050;-67
2021/08/22 02:20:40;;;;;;;7.63;4.00;;;22.20;92.70;;;;;;4254742;28;20058;-67
2021/08/22 02:22:46;;;;;;;5.15;3.50;;;22.10;93.10;;;;;;4254926;28;20055;-67
2021/08/22 02:24:49;;;;;;;6.70;3.88;;;22.00;93.20;;;;;;4254885;28;20351;-66
2021/08/22 02:26:52;;;;;;;5.68;3.67;;;22.00;93.10;;;;;;4255592;27;20053;-67
2021/08/22 02:28:57;;;;;;;10.35;3.90;;;22.00;92.90;;;;;;4257585;27;20051;-67
2021/08/22 02:31:00;;;;;;;8.93;3.72;;;22.00;93.00;;;;;;4239646;28;20620;-67
2021/08/22 02:33:05;;;;;;;7.68;3.55;;;22.00;92.80;;;;;;4257500;27;20055;-67
2021/08/22 02:35:09;;;;;;;8.70;4.22;;;22.10;92.60;;;;;;4257677;27;20365;-66
2021/08/22 02:37:12;;;;;;;6.38;3.85;;;22.00;92.90;;;;;;4257384;27;20335;-67
2021/08/22 02:39:16;;;;;;;8.05;3.80;;;22.10;92.50;;;;;;4257586;27;20051;-67
2021/08/22 02:41:19;;;;;;;6.50;3.83;;;22.10;92.40;;;;;;4257320;27;20047;-67
2021/08/22 02:43:22;;;;;;;6.32;4.00;;;22.20;92.40;;;;;;4239505;28;20055;-67
2021/08/22 02:45:25;;;;;;;6.75;4.15;;;22.10;92.50;;;;;;4257326;27;20051;-67
2021/08/22 02:47:28;;;;;;;7.20;4.13;;;22.10;92.20;;;;;;4257779;27;20047;-67
2021/08/22 02:49:31;;;;;;;5.25;3.53;;;22.10;92.20;;;;;;4258192;27;20289;-67
2021/08/22 02:51:34;;;;;;;9.43;3.97;;;22.10;92.00;;;;;;4257633;27;20216;-67
2021/08/22 02:53:37;;;;;;;10.30;4.45;;;22.00;92.10;;;;;;4257195;27;20047;-67
2021/08/22 02:55:41;;;;;;;7.82;3.92;;;22.00;92.10;;;;;;4257298;27;20051;-67
2021/08/22 02:57:44;;;;;;;8.35;3.78;;;22.00;92.00;;;;;;4257415;27;20051;-67
2021/08/22 02:59:47;;;;;;;6.75;3.67;;;21.90;92.10;;;;;;4257309;27;20103;-67
2021/08/22 03:01:50;;;;;;;6.57;3.70;;;21.90;92.10;;;;;;4257079;27;20058;-67
2021/08/22 03:03:53;;;;;;;9.55;4.05;;;21.90;92.20;;;;;;4257333;27;20456;-67
2021/08/22 03:05:56;;;;;;;7.05;3.33;;;21.90;92.10;;;;;;4257379;27;20051;-67
2021/08/22 03:07:59;;;;;;;11.32;3.88;;;21.90;92.00;;;;;;4257339;27;20400;-67
2021/08/22 03:10:02;;;;;;;9.57;3.80;;;21.80;92.00;;;;;;4239075;28;20148;-66
2021/08/22 03:12:07;;;;;;;7.82;3.85;;;21.80;91.70;;;;;;4256960;27;20055;-67
2021/08/22 03:14:11;;;;;;;9.15;3.72;;;21.80;91.80;;;;;;4257143;27;20047;-67
2021/08/22 03:16:14;;;;;;;10.32;4.30;;;21.80;91.50;;;;;;4257077;27;20067;-67
2021/08/22 03:18:17;;;;;;;8.30;4.10;;;21.80;91.40;;;;;;4257190;27;20076;-67
2021/08/22 03:20:20;;;;;;;10.65;4.10;;;21.80;91.40;;;;;;4256993;27;20051;-67
2021/08/22 03:22:23;;;;;;;12.18;4.00;;;21.70;91.40;;;;;;4256857;27;20051;-67
2021/08/22 03:24:26;;;;;;;8.48;3.97;;;21.80;91.30;;;;;;4256943;27;20073;-66
2021/08/22 03:26:29;;;;;;;10.95;4.63;;;21.70;91.20;;;;;;4260490;27;20052;-68
2021/08/22 03:28:34;;;;;;;9.18;4.15;;;21.70;91.10;;;;;;4258201;27;20055;-66
2021/08/22 03:30:37;;;;;;;13.77;4.55;;;21.60;91.30;;;;;;4257316;27;20051;-67
2021/08/22 03:32:40;;;;;;;14.88;5.32;;;21.40;91.40;;;;;;4256421;27;20127;-67
2021/08/22 03:34:43;;;;;;;20.50;5.20;;;21.30;91.60;;;;;;4256971;27;20089;-66
2021/08/22 03:36:46;;;;;;;11.05;4.47;;;21.20;91.80;;;;;;4257087;27;20051;-66
2021/08/22 03:38:49;;;;;;;13.35;4.60;;;21.20;91.60;;;;;;4257866;27;20051;-67
2021/08/22 03:40:52;;;;;;;11.63;4.68;;;21.20;91.50;;;;;;4259980;27;20280;-67
2021/08/22 03:42:55;;;;;;;14.68;5.03;;;21.10;91.60;;;;;;4259688;27;20051;-67
2021/08/22 03:44:59;;;;;;;14.05;4.72;;;21.10;91.50;;;;;;4259185;27;20116;-67
2021/08/22 03:47:02;;;;;;;12.35;5.28;;;21.10;91.40;;;;;;4257116;27;20051;-67
2021/08/22 03:49:08;;;;;;;12.15;5.00;;;21.10;91.40;;;;;;4256944;27;20050;-67
2021/08/22 03:51:11;;;;;;;15.05;5.00;;;21.00;91.60;;;;;;4257397;27;20055;-67
2021/08/22 03:53:14;;;;;;;11.02;4.57;;;21.00;91.50;;;;;;4256931;27;20058;-66
2021/08/22 03:55:17;;;;;;;13.18;5.07;;;20.90;91.50;;;;;;4256716;27;20047;-66
2021/08/22 03:57:20;;;;;;;15.70;5.15;;;20.90;91.90;;;;;;4256980;27;20058;-66
2021/08/22 03:59:23;;;;;;;12.57;4.55;;;20.80;91.90;;;;;;4256876;27;20080;-67
2021/08/22 04:01:28;;;;;;;17.45;5.55;;;20.90;91.50;;;;;;4257819;27;20081;-66
2021/08/22 04:03:32;;;;;;;21.25;5.82;;;20.90;91.40;;;;;;4259270;27;20088;-66
2021/08/22 04:05:35;;;;;;;17.35;5.30;;;20.90;91.40;;;;;;4258502;27;20059;-67
2021/08/22 04:07:44;;;;;;;16.20;5.78;;;20.90;91.40;;;;;;4259853;27;20055;-67
2021/08/22 04:09:47;;;;;;;14.40;5.13;;;20.90;91.70;;;;;;4260174;27;20092;-66
2021/08/22 04:11:52;;;;;;;14.40;4.90;;;20.80;91.60;;;;;;4257448;27;20429;-66
2021/08/22 04:13:56;;;;;;;15.45;4.80;;;20.90;91.20;;;;;;4257413;27;20051;-67
2021/08/22 04:15:58;;;;;;;14.15;5.20;;;20.80;91.20;;;;;;4258980;27;20054;-66
2021/08/22 04:18:03;;;;;;;11.07;4.65;;;20.90;91.20;;;;;;4258169;27;20051;-67
2021/08/22 04:20:07;;;;;;;16.65;5.28;;;20.90;91.20;;;;;;4256028;27;20051;-68
2021/08/22 04:22:10;;;;;;;13.68;5.50;;;20.90;91.00;;;;;;4256016;27;20059;-66
2021/08/22 04:24:13;;;;;;;14.63;5.85;;;20.90;91.30;;;;;;4255675;27;20047;-67
2021/08/22 04:26:16;;;;;;;14.18;5.25;;;20.80;91.20;;;;;;4255598;27;20096;-67
2021/08/22 04:28:20;;;;;;;13.65;5.47;;;20.90;91.10;;;;;;4255970;27;20063;-66
2021/08/22 04:30:22;;;;;;;12.82;4.45;;;20.70;91.40;;;;;;4255825;27;20092;-66
2021/08/22 04:32:26;;;;;;;14.80;5.22;;;20.70;91.30;;;;;;4255843;27;20096;-66
2021/08/22 04:34:30;;;;;;;14.88;5.22;;;20.70;91.30;;;;;;4255844;27;20039;-67
2021/08/22 04:36:33;;;;;;;18.80;5.05;;;20.80;91.10;;;;;;4256206;27;20070;-66
2021/08/22 04:38:36;;;;;;;14.13;4.78;;;20.70;91.10;;;;;;4256418;27;20055;-69
2021/08/22 04:40:39;;;;;;;14.02;5.30;;;20.70;91.10;;;;;;4255555;27;20050;-66
2021/08/22 04:42:43;;;;;;;13.07;4.85;;;20.70;90.90;;;;;;4255882;27;20243;-66
2021/08/22 04:44:46;;;;;;;12.70;4.85;;;20.60;91.40;;;;;;4256504;27;20091;-66
2021/08/22 04:46:49;;;;;;;15.68;5.15;;;20.60;91.00;;;;;;4258957;27;20047;-66
2021/08/22 04:48:52;;;;;;;12.65;5.25;;;20.70;91.10;;;;;;4257551;27;20100;-66
2021/08/22 04:50:56;;;;;;;13.45;4.90;;;20.50;91.40;;;;;;4255513;27;20047;-66
2021/08/22 04:52:59;;;;;;;13.90;4.57;;;20.60;91.20;;;;;;4255657;27;20404;-66
2021/08/22 04:55:05;;;;;;;12.70;4.80;;;20.60;91.20;;;;;;4255455;27;20285;-63
2021/08/22 04:57:08;;;;;;;17.00;5.57;;;20.50;91.50;;;;;;4255556;27;20047;-64
2021/08/22 04:59:11;;;;;;;16.00;5.07;;;20.50;91.30;;;;;;4255651;27;20050;-64
2021/08/22 05:01:14;;;;;;;13.55;4.68;;;20.50;91.20;;;;;;4255752;27;20376;-63
2021/08/22 05:03:18;;;;;;;13.38;4.90;;;20.50;91.30;;;;;;4255240;27;20078;-66
2021/08/22 05:05:21;;;;;;;15.27;4.78;;;20.50;91.30;;;;;;4255450;27;20116;-66
2021/08/22 05:07:25;;;;;;;11.00;4.13;;;20.50;91.20;;;;;;4255440;27;20047;-67
2021/08/22 05:09:30;;;;;;;12.90;4.07;;;20.50;91.20;;;;;;4258795;27;20043;-67
2021/08/22 05:11:34;;;;;;;10.98;3.95;;;20.50;91.10;;;;;;4262800;27;20096;-66
2021/08/22 05:13:37;;;;;;;13.38;4.07;;;20.50;91.00;;;;;;4255711;28;20051;-67
2021/08/22 05:15:41;;;;;;;11.30;3.88;;;20.30;91.30;;;;;;4255302;27;20058;-66
2021/08/22 05:17:44;;;;;;;17.60;5.18;;;20.40;91.20;;;;;;4255297;28;20055;-66
2021/08/22 05:19:47;;;;;;;10.20;4.40;;;20.50;91.00;;;;;;4255501;28;20051;-68
2021/08/22 05:21:50;;;;;;;14.35;4.55;;;20.60;90.70;;;;;;4255464;28;20104;-66
2021/08/22 05:23:54;;;;;;;12.02;4.70;;;20.60;90.70;;;;;;4255878;28;20043;-66
2021/08/22 05:25:57;;;;;;;13.40;4.22;;;20.60;90.80;;;;;;4258198;28;20047;-67
2021/08/22 05:28:00;;;;;;;13.23;4.28;;;20.50;90.70;;;;;;4257473;28;20411;-66
2021/08/22 05:30:04;;;;;;;11.77;4.35;;;20.50;90.60;;;;;;4255553;28;20059;-66
2021/08/22 05:32:07;;;;;;;15.18;4.15;;;20.50;90.90;;;;;;4237306;28;20055;-66
2021/08/22 05:34:10;;;;;;;11.27;4.55;;;20.50;90.70;;;;;;4255179;28;20051;-66
2021/08/22 05:36:15;;;;;;;9.05;4.50;;;20.50;90.60;;;;;;4255053;28;20043;-67
2021/08/22 05:38:18;;;;;;;13.93;4.43;;;20.50;90.60;;;;;;4255469;28;20088;-67
2021/08/22 05:40:24;;;;;;;16.75;4.90;;;20.60;90.60;;;;;;4255459;28;20051;-66
2021/08/22 05:42:27;;;;;;;10.80;3.83;;;20.60;90.60;;;;;;4255382;28;20096;-66
2021/08/22 05:44:31;;;;;;;11.82;4.18;;;20.60;90.90;;;;;;4255056;28;20054;-66
2021/08/22 05:46:34;;;;;;;12.32;4.45;;;20.50;90.60;;;;;;4255438;28;20405;-67
2021/08/22 05:48:37;;;;;;;12.65;4.40;;;20.50;90.60;;;;;;4255504;28;20097;-66
2021/08/22 05:50:40;;;;;;;13.57;3.95;;;20.50;90.60;;;;;;4255308;28;20051;-65
2021/08/22 05:52:43;;;;;;;12.85;4.03;;;20.60;90.50;;;;;;4255353;28;20047;-66
2021/08/22 05:54:46;;;;;;;11.15;3.83;;;20.60;90.40;;;;;;4254992;28;20269;-66
2021/08/22 05:56:50;;;;;;;11.93;4.10;;;20.70;90.30;;;;;;4255109;28;20055;-66
2021/08/22 05:58:53;;;;;;;14.80;4.22;;;20.60;90.30;;;;;;4255076;28;20055;-66
2021/08/22 06:00:56;;;;;;;13.98;4.10;;;20.60;90.50;;;;;;4254966;27;20051;-67
2021/08/22 06:03:01;;;;;;;14.07;5.38;;;20.50;90.60;;;;;;4257703;27;20120;-66
2021/08/22 06:05:04;;;;;;;;;;;20.50;90.50;;;;;;4260846;27;20084;-66
2021/08/22 06:07:07;;;;;;;10.75;3.70;;;20.60;90.50;;;;;;4259587;27;19952;-66
2021/08/22 06:09:11;;;;;;;10.88;4.35;;;20.50;90.50;;;;;;4258376;27;20059;-66
2021/08/22 06:11:14;;;;;;;10.90;4.05;;;20.40;90.70;;;;;;4258571;27;20100;-67
2021/08/22 06:13:18;;;;;;;15.88;5.18;;;20.40;90.70;;;;;;4258644;27;20055;-66
2021/08/22 06:15:23;;;;;;;12.98;4.22;;;20.40;90.80;;;;;;4240770;28;20065;-66
2021/08/22 06:17:26;;;;;;;12.10;4.00;;;20.60;90.60;;;;;;4260756;27;20051;-66
2021/08/22 06:19:29;;;;;;;12.77;3.83;;;20.60;90.50;;;;;;4261359;27;20051;-67
2021/08/22 06:21:32;;;;;;;12.32;3.83;;;20.60;90.40;;;;;;4264185;27;20127;-67
2021/08/22 06:23:35;;;;;;;12.82;4.10;;;20.70;90.30;;;;;;4267069;27;20055;-67
2021/08/22 06:25:38;;;;;;;11.95;3.80;;;20.60;90.50;;;;;;4262679;27;20047;-67
2021/08/22 06:27:41;;;;;;;15.35;4.43;;;20.60;90.60;;;;;;4264307;27;20051;-65
2021/08/22 06:29:45;;;;;;;14.75;4.22;;;20.60;90.70;;;;;;4259391;27;20055;-66
2021/08/22 06:31:49;;;;;;;14.30;3.50;;;20.60;90.60;;;;;;4258831;27;20051;-66
2021/08/22 06:33:53;;;;;;;16.65;4.03;;;20.70;90.60;;;;;;4258769;27;20101;-67
2021/08/22 06:36:01;;;;;;;15.00;4.20;;;20.70;90.70;;;;;;4241939;27;20051;-67
2021/08/22 06:38:04;;;;;;;10.95;3.65;;;20.70;90.70;;;;;;4259179;27;20051;-66
2021/08/22 06:40:15;;;;;;;13.45;4.38;;;20.70;90.80;;;;;;4259191;27;20047;-66
2021/08/22 06:42:18;;;;;;;11.95;3.65;;;20.70;90.70;;;;;;4258200;27;20347;-66
2021/08/22 06:44:22;;;;;;;12.75;3.83;;;20.80;90.60;;;;;;4259727;27;20104;-66
2021/08/22 06:46:26;;;;;;;13.18;4.07;;;20.90;90.40;;;;;;4259646;27;20085;-66
2021/08/22 06:48:29;;;;;;;13.02;3.95;;;20.90;90.50;;;;;;4258016;27;20051;-66
2021/08/22 06:50:32;;;;;;;12.00;4.07;;;20.80;90.70;;;;;;4257850;27;20135;-66
2021/08/22 06:52:35;;;;;;;16.02;3.63;;;20.80;90.80;;;;;;4259563;27;20055;-67
2021/08/22 06:54:41;;;;;;;10.77;3.63;;;20.90;90.60;;;;;;4264999;27;20051;-66
2021/08/22 06:56:44;;;;;;;8.30;3.58;;;20.90;90.70;;;;;;4261229;27;20289;-66
2021/08/22 06:58:47;;;;;;;10.23;3.33;;;20.80;91.10;;;;;;4260663;27;20051;-67
2021/08/22 07:00:50;;;;;;;11.35;3.80;;;20.90;90.80;;;;;;4260009;27;20223;-66
2021/08/22 07:02:55;;;;;;;8.82;3.25;;;21.00;90.50;;;;;;4259181;27;20051;-67
2021/08/22 07:04:59;;;;;;;11.82;3.83;;;21.10;90.30;;;;;;4258903;27;20278;-66
2021/08/22 07:07:02;;;;;;;14.98;4.28;;;21.20;90.30;;;;;;4257838;27;20050;-66
2021/08/22 07:09:05;;;;;;;13.38;4.68;;;21.10;90.40;;;;;;4256830;27;20051;-67
2021/08/22 07:11:08;;;;;;;16.40;4.00;;;21.00;90.60;;;;;;4256513;27;20080;-67
2021/08/22 07:13:11;;;;;;;14.98;4.50;;;21.00;90.50;;;;;;4256493;27;20355;-68
2021/08/22 07:15:14;;;;;;;13.40;5.15;;;21.00;90.60;;;;;;4257056;27;20051;-69
2021/08/22 07:17:20;;;;;;;12.75;3.35;;;20.90;90.70;;;;;;4256823;27;20109;-68
2021/08/22 07:19:27;;;;;;;7.78;3.20;;;21.00;90.50;;;;;;4257532;27;20088;-67
2021/08/22 07:21:31;;;;;;;13.60;4.25;;;21.00;90.40;;;;;;4257794;27;20063;-67
2021/08/22 07:23:34;;;;;;;15.85;4.30;;;21.00;90.40;;;;;;4258521;27;20100;-67
2021/08/22 07:25:40;;;;;;;13.48;4.15;;;21.00;90.50;;;;;;4257953;27;20043;-67
2021/08/22 07:27:43;;;;;;;10.30;4.00;;;21.10;90.40;;;;;;4257143;27;20051;-67
2021/08/22 07:29:48;;;;;;;;;;;21.20;90.30;;;;;;4257367;27;20064;-67
2021/08/22 07:31:51;;;;;;;12.25;3.38;;;21.20;90.20;;;;;;4256795;27;19916;-67
2021/08/22 07:33:54;;;;;;;11.10;3.17;;;21.20;90.00;;;;;;4256741;27;20096;-67
2021/08/22 07:35:59;;;;;;;12.25;3.20;;;21.30;89.70;;;;;;4256794;27;20437;-67
2021/08/22 07:38:02;;;;;;;9.20;3.25;;;21.40;89.50;;;;;;4256572;27;20282;-64
2021/08/22 07:40:06;;;;;;;8.52;3.47;;;21.30;89.60;;;;;;4256756;27;20281;-67
2021/08/22 07:42:09;;;;;;;7.63;3.30;;;21.40;89.80;;;;;;4256605;27;20100;-67
2021/08/22 07:44:12;;;;;;;11.88;3.03;;;21.50;89.70;;;;;;4256631;27;20058;-67
2021/08/22 07:46:15;;;;;;;8.15;2.97;;;21.50;89.20;;;;;;4256438;27;20123;-67
2021/08/22 07:48:18;;;;;;;12.60;3.20;;;21.30;89.90;;;;;;4256741;27;20074;-67
2021/08/22 07:50:21;;;;;;;8.77;2.80;;;21.40;90.10;;;;;;4256814;27;20047;-67
2021/08/22 07:52:26;;;;;;;7.70;2.83;;;21.30;90.00;;;;;;4256585;27;20055;-67
2021/08/22 07:54:29;;;;;;;9.65;2.78;;;21.40;89.80;;;;;;4256688;27;20055;-67
2021/08/22 07:56:31;;;;;;;14.40;3.97;;;21.40;89.60;;;;;;4256522;27;20108;-65
2021/08/22 07:58:34;;;;;;;9.07;2.97;;;21.50;89.90;;;;;;4256726;27;20051;-64
2021/08/22 08:00:37;;;;;;;7.32;2.60;;;21.60;89.40;;;;;;4256728;27;20079;-67
2021/08/22 08:02:40;;;;;;;12.48;2.92;;;21.80;89.60;;;;;;4257781;27;20334;-66
2021/08/22 08:04:46;;;;;;;11.73;2.83;;;21.80;88.70;;;;;;4256698;27;20092;-65
2021/08/22 08:06:49;;;;;;;8.30;2.50;;;21.90;88.60;;;;;;4256386;27;20062;-66
2021/08/22 08:08:54;;;;;;;10.07;2.90;;;22.00;88.30;;;;;;4256445;27;20047;-68
2021/08/22 08:10:57;;;;;;;8.88;3.00;;;21.90;87.90;;;;;;4256134;27;20054;-67
2021/08/22 08:12:59;;;;;;;6.68;2.17;;;22.00;87.90;;;;;;4256257;27;20047;-68
2021/08/22 08:15:04;;;;;;;12.05;2.88;;;21.90;87.90;;;;;;4256219;27;20419;-67
2021/08/22 08:17:08;;;;;;;9.93;2.60;;;22.00;87.80;;;;;;4255566;27;20092;-68
2021/08/22 08:19:11;;;;;;;10.35;2.60;;;21.90;87.70;;;;;;4255632;27;20475;-67
2021/08/22 08:21:14;;;;;;;8.48;3.58;;;22.00;88.50;;;;;;4256285;27;20100;-67
2021/08/22 08:23:17;;;;;;;8.57;2.83;;;22.00;87.90;;;;;;4257476;27;20051;-66
2021/08/22 08:25:21;;;;;;;8.88;2.85;;;22.10;88.00;;;;;;4256262;27;20051;-66
2021/08/22 08:27:24;;;;;;;13.98;3.80;;;22.20;88.20;;;;;;4239575;27;20061;-64
2021/08/22 08:29:27;;;;;;;8.13;2.55;;;22.20;87.20;;;;;;4256744;27;20375;-67
2021/08/22 08:31:32;;;;;;;8.93;2.70;;;22.30;87.00;;;;;;4255863;27;20099;-67
2021/08/22 08:33:36;;;;;;;7.43;2.60;;;22.40;86.90;;;;;;4255967;27;20077;-67
2021/08/22 08:35:39;;;;;;;10.68;2.50;;;22.40;86.70;;;;;;4259149;27;20052;-67
2021/08/22 08:37:42;;;;;;;8.27;2.55;;;22.30;86.50;;;;;;4261281;27;20395;-66
2021/08/22 08:39:45;;;;;;;8.20;3.03;;;22.20;85.80;;;;;;4256362;27;20100;-66
2021/08/22 08:41:50;;;;;;;4.72;2.10;;;22.30;86.70;;;;;;4256584;27;20051;-67
2021/08/22 08:43:55;;;;;;;11.70;2.67;;;22.20;86.50;;;;;;4255771;27;20261;-66
2021/08/22 08:45:59;;;;;;;9.10;2.58;;;22.40;86.40;;;;;;4255770;27;20107;-66
2021/08/22 08:48:02;;;;;;;8.18;2.72;;;22.50;86.50;;;;;;4255767;27;20051;-66
2021/08/22 08:50:09;;;;;;;7.50;2.05;;;22.80;86.10;;;;;;4255844;27;20081;-67
2021/08/22 08:52:16;;;;;;;8.95;2.75;;;22.80;85.10;;;;;;4255542;27;20051;-67
2021/08/22 08:54:19;;;;;;;10.88;2.55;;;22.70;85.00;;;;;;4255633;27;20100;-67
2021/08/22 08:56:22;;;;;;;6.70;2.53;;;22.70;84.90;;;;;;4255573;27;20055;-67
2021/08/22 08:58:27;;;;;;;6.55;2.13;;;22.90;85.20;;;;;;4255237;27;20099;-67
2021/08/22 09:00:33;;;;;;;8.35;2.90;;;23.10;85.00;;;;;;4255613;27;20116;-67
2021/08/22 09:02:36;;;;;;;7.47;2.10;;;23.30;83.70;;;;;;4255214;27;20232;-66
2021/08/22 09:04:41;;;;;;;10.63;2.55;;;23.10;82.60;;;;;;4255471;27;20283;-66
2021/08/22 09:07:17;;;;;;;;;;;23.30;83.40;;;;;;4256028;27;20100;-64
2021/08/22 09:09:57;;;;;;;10.40;2.03;;;23.30;82.40;;;;;;4186313;28;19931;-67
2021/08/22 09:12:45;;;;;;;10.52;1.85;;;23.30;82.00;;;;;;4186288;28;20266;-66
2021/08/22 09:15:25;;;;;;;7.85;1.98;;;23.20;81.00;;;;;;4227783;28;20050;-67
2021/08/22 09:18:31;;;;;;;6.35;1.98;;;23.20;81.20;;;;;;4255454;28;20059;-67
2021/08/22 09:21:07;;;;;;;5.93;2.00;;;23.20;81.30;;;;;;4255692;28;20051;-67
2021/08/22 09:24:02;;;;;;;7.60;1.80;;;23.20;81.20;;;;;;4255360;28;20215;-67
2021/08/22 09:26:53;;;;;;;3.95;1.50;;;23.20;81.20;;;;;;4254681;28;20050;-67
2021/08/22 09:29:44;;;;;;;6.78;1.80;;;23.40;80.20;;;;;;4255112;28;20135;-67
2021/08/22 09:32:20;;;;;;;9.55;1.90;;;23.30;80.20;;;;;;4185746;28;20049;-67
2021/08/22 09:35:00;;;;;;;4.15;1.83;;;23.10;80.70;;;;;;4200102;28;20051;-67
2021/08/22 09:37:40;;;;;;;6.00;1.63;;;23.20;80.50;;;;;;4258628;27;20339;-67
2021/08/22 09:40:20;;;;;;;7.53;2.10;;;23.00;81.00;;;;;;4257908;27;20051;-67
2021/08/22 09:42:59;;;;;;;9.07;2.08;;;23.10;80.80;;;;;;4258850;27;20092;-67
2021/08/22 09:45:38;;;;;;;7.70;1.90;;;23.10;80.90;;;;;;4258846;27;20039;-68
2021/08/22 09:48:17;;;;;;;7.38;2.00;;;23.10;80.70;;;;;;4217251;27;20047;-67
2021/08/22 09:51:03;;;;;;;10.75;1.90;;;23.10;80.70;;;;;;4258909;27;20051;-65
2021/08/22 09:53:54;;;;;;;6.03;1.92;;;23.10;80.50;;;;;;4258289;27;20062;-65
2021/08/22 09:56:52;;;;;;;9.40;2.03;;;23.10;80.20;;;;;;4258475;27;20050;-65
2021/08/22 09:59:36;;;;;;;12.80;2.20;;;23.10;79.80;;;;;;4205665;28;20291;-65
2021/08/22 10:02:21;;;;;;;5.30;1.75;;;23.10;79.80;;;;;;4249892;27;20216;-65
2021/08/22 10:04:58;;;;;;;8.88;2.03;;;23.20;80.60;;;;;;4258501;27;20059;-65
2021/08/22 10:07:07;;;;;;;6.60;1.85;;;23.40;80.00;;;;;;4258602;27;20058;-65
2021/08/22 10:09:13;;;;;;;10.23;3.00;;;23.50;80.10;;;;;;4258595;27;20051;-65
2021/08/22 10:11:17;;;;;;;7.55;1.77;;;23.60;80.10;;;;;;4241069;28;20128;-65
2021/08/22 10:13:20;;;;;;;6.65;1.90;;;23.50;80.30;;;;;;4258792;27;20100;-65
2021/08/22 10:15:25;;;;;;;7.32;1.95;;;23.60;79.70;;;;;;4258636;27;20047;-66
2021/08/22 10:17:28;;;;;;;;;;;23.70;79.60;;;;;;4259671;27;20163;-67
2021/08/22 10:19:30;;;;;;;8.75;2.60;;;23.80;79.30;;;;;;4264492;27;19919;-69
2021/08/22 10:21:34;;;;;;;7.15;1.95;;;23.90;79.40;;;;;;4260043;27;20051;-65
2021/08/22 10:23:54;;;;;;;11.50;1.73;;;24.00;79.10;;;;;;4259784;27;20225;-65
2021/08/22 10:25:57;;;;;;;3.92;1.20;;;23.90;78.40;;;;;;4259020;27;20063;-65
2021/08/22 10:28:01;;;;;;;4.13;1.48;;;23.80;78.10;;;;;;4259482;27;20051;-65
2021/08/22 10:30:09;;;;;;;7.80;1.70;;;23.90;77.80;;;;;;4261087;27;20171;-66
2021/08/22 10:32:14;;;;;;;5.50;1.40;;;23.80;75.50;;;;;;4262263;27;20168;-66
2021/08/22 10:34:21;;;;;;;4.38;1.30;;;23.70;77.10;;;;;;4262856;27;20050;-66
2021/08/22 10:36:28;;;;;;;5.68;2.70;;;23.80;77.40;;;;;;4244920;28;20056;-67
2021/08/22 10:38:31;;;;;;;11.13;3.08;;;23.70;77.30;;;;;;4258120;27;20379;-65
2021/08/22 10:40:36;;;;;;;5.03;2.20;;;23.40;76.70;;;;;;4258294;27;20456;-65
2021/08/22 10:42:39;;;;;;;;;;;23.30;77.10;;;;;;4258743;27;20051;-65
2021/08/22 10:44:42;;;;;;;3.70;1.27;;;23.50;78.40;;;;;;4258515;27;20237;-66
2021/08/22 10:46:46;;;;;;;7.53;2.72;;;23.70;77.90;;;;;;4257261;27;20051;-65
2021/08/22 10:48:55;;;;;;;9.82;1.48;;;23.80;77.90;;;;;;4257290;27;20039;-65
2021/08/22 10:51:12;;;;;;;4.70;1.30;;;24.00;77.40;;;;;;4257716;27;20099;-66
2021/08/22 10:53:22;;;;;;;3.13;1.20;;;24.10;77.00;;;;;;4239791;28;20052;-65
2021/08/22 10:55:32;;;;;;;4.45;1.67;;;24.10;76.90;;;;;;4239529;28;20048;-65
2021/08/22 10:57:49;;;;;;;4.22;2.25;;;24.20;77.30;;;;;;4257637;27;20158;-65